sensor_id;sensor_type;location;lat;lon;timestamp;P1;durP1;ratioP1;P2;durP2;ratioP2
68888;SDS011;55930;47.412;8.790;2023-03-14T00:01:20;1.30;;;0.50;;
68888;SDS011;55930;47.412;8.790;2023-03-14T00:04:41;1.33;;;0.57;;
68888;SDS011;55930;47.412;8.790;2023-03-14T00:08:01;1.53;;;0.60;;
68888;SDS011;55930;47.412;8.790;2023-03-14T00:11:24;1.90;;;0.50;;
68888;SDS011;55930;47.412;8.790;2023-03-14T00:14:45;1.57;;;0.40;;
68888;SDS011;55930;47.412;8.790;2023-03-14T00:18:07;1.05;;;0.40;;
68888;SDS011;55930;47.412;8.790;2023-03-14T00:21:28;2.77;;;0.33;;
68888;SDS011;55930;47.412;8.790;2023-03-14T00:24:50;0.98;;;0.60;;
68888;SDS011;55930;47.412;8.790;2023-03-14T00:28:11;3.67;;;0.63;;
68888;SDS011;55930;47.412;8.790;2023-03-14T00:31:31;2.60;;;0.90;;
68888;SDS011;55930;47.412;8.790;2023-03-14T00:34:52;1.10;;;0.60;;
68888;SDS011;55930;47.412;8.790;2023-03-14T00:38:12;0.57;;;0.40;;
68888;SDS011;55930;47.412;8.790;2023-03-14T00:41:32;2.37;;;0.70;;
68888;SDS011;55930;47.412;8.790;2023-03-14T00:44:55;1.90;;;0.50;;
68888;SDS011;55930;47.412;8.790;2023-03-14T00:48:16;0.65;;;0.40;;
68888;SDS011;55930;47.412;8.790;2023-03-14T00:51:37;0.38;;;0.22;;
68888;SDS011;55930;47.412;8.790;2023-03-14T00:54:58;2.00;;;0.43;;
68888;SDS011;55930;47.412;8.790;2023-03-14T00:58:18;0.33;;;0.30;;
68888;SDS011;55930;47.412;8.790;2023-03-14T01:01:39;0.30;;;0.30;;
68888;SDS011;55930;47.412;8.790;2023-03-14T01:05:00;0.32;;;0.17;;
68888;SDS011;55930;47.412;8.790;2023-03-14T01:08:20;1.83;;;0.40;;
68888;SDS011;55930;47.412;8.790;2023-03-14T01:11:41;0.23;;;0.23;;
68888;SDS011;55930;47.412;8.790;2023-03-14T01:15:06;0.68;;;0.40;;
68888;SDS011;55930;47.412;8.790;2023-03-14T01:18:27;2.08;;;0.35;;
68888;SDS011;55930;47.412;8.790;2023-03-14T01:21:47;0.30;;;0.30;;
68888;SDS011;55930;47.412;8.790;2023-03-14T01:25:15;1.07;;;0.40;;
68888;SDS011;55930;47.412;8.790;2023-03-14T01:28:36;0.50;;;0.38;;
68888;SDS011;55930;47.412;8.790;2023-03-14T01:31:57;0.20;;;0.20;;
68888;SDS011;55930;47.412;8.790;2023-03-14T01:35:17;0.30;;;0.30;;
68888;SDS011;55930;47.412;8.790;2023-03-14T01:38:38;3.47;;;0.30;;
68888;SDS011;55930;47.412;8.790;2023-03-14T01:42:12;0.60;;;0.40;;
68888;SDS011;55930;47.412;8.790;2023-03-14T01:49:29;0.30;;;0.30;;
68888;SDS011;55930;47.412;8.790;2023-03-14T01:52:56;0.52;;;0.32;;
68888;SDS011;55930;47.412;8.790;2023-03-14T01:56:16;0.30;;;0.30;;
68888;SDS011;55930;47.412;8.790;2023-03-14T01:59:38;2.38;;;0.30;;
68888;SDS011;55930;47.412;8.790;2023-03-14T02:08:07;0.22;;;0.20;;
68888;SDS011;55930;47.412;8.790;2023-03-14T02:11:12;1.00;;;0.30;;
68888;SDS011;55930;47.412;8.790;2023-03-14T02:14:35;0.30;;;0.25;;
68888;SDS011;55930;47.412;8.790;2023-03-14T02:17:57;1.40;;;0.30;;
68888;SDS011;55930;47.412;8.790;2023-03-14T02:28:19;0.30;;;0.20;;
68888;SDS011;55930;47.412;8.790;2023-03-14T02:31:40;0.28;;;0.28;;
68888;SDS011;55930;47.412;8.790;2023-03-14T02:35:04;0.50;;;0.30;;
68888;SDS011;55930;47.412;8.790;2023-03-14T02:42:16;0.43;;;0.28;;
68888;SDS011;55930;47.412;8.790;2023-03-14T02:49:10;0.20;;;0.20;;
68888;SDS011;55930;47.412;8.790;2023-03-14T02:52:33;0.22;;;0.22;;
68888;SDS011;55930;47.412;8.790;2023-03-14T02:55:57;0.47;;;0.38;;
68888;SDS011;55930;47.412;8.790;2023-03-14T02:59:21;0.30;;;0.30;;
68888;SDS011;55930;47.412;8.790;2023-03-14T03:02:44;0.30;;;0.30;;
68888;SDS011;55930;47.412;8.790;2023-03-14T03:06:04;0.30;;;0.30;;
68888;SDS011;55930;47.412;8.790;2023-03-14T03:09:25;0.40;;;0.20;;
68888;SDS011;55930;47.412;8.790;2023-03-14T03:12:46;0.27;;;0.27;;
68888;SDS011;55930;47.412;8.790;2023-03-14T03:16:06;0.23;;;0.23;;
68888;SDS011;55930;47.412;8.790;2023-03-14T03:19:27;0.37;;;0.30;;
68888;SDS011;55930;47.412;8.790;2023-03-14T03:22:50;0.30;;;0.30;;
68888;SDS011;55930;47.412;8.790;2023-03-14T03:26:10;0.75;;;0.40;;
68888;SDS011;55930;47.412;8.790;2023-03-14T03:29:31;0.30;;;0.30;;
68888;SDS011;55930;47.412;8.790;2023-03-14T03:32:51;0.33;;;0.33;;
68888;SDS011;55930;47.412;8.790;2023-03-14T03:36:12;0.63;;;0.40;;
68888;SDS011;55930;47.412;8.790;2023-03-14T03:39:32;0.57;;;0.30;;
68888;SDS011;55930;47.412;8.790;2023-03-14T03:42:53;0.67;;;0.40;;
68888;SDS011;55930;47.412;8.790;2023-03-14T03:46:13;0.23;;;0.23;;
68888;SDS011;55930;47.412;8.790;2023-03-14T03:49:33;0.60;;;0.30;;
68888;SDS011;55930;47.412;8.790;2023-03-14T03:52:54;0.77;;;0.30;;
68888;SDS011;55930;47.412;8.790;2023-03-14T03:56:14;0.93;;;0.50;;
68888;SDS011;55930;47.412;8.790;2023-03-14T03:59:35;0.73;;;0.30;;
68888;SDS011;55930;47.412;8.790;2023-03-14T04:02:55;0.47;;;0.43;;
68888;SDS011;55930;47.412;8.790;2023-03-14T04:06:16;0.60;;;0.30;;
68888;SDS011;55930;47.412;8.790;2023-03-14T04:09:37;1.13;;;0.40;;
68888;SDS011;55930;47.412;8.790;2023-03-14T04:12:58;0.28;;;0.28;;
68888;SDS011;55930;47.412;8.790;2023-03-14T04:16:22;0.43;;;0.43;;
68888;SDS011;55930;47.412;8.790;2023-03-14T04:19:44;0.30;;;0.30;;
68888;SDS011;55930;47.412;8.790;2023-03-14T04:23:05;1.07;;;0.43;;
68888;SDS011;55930;47.412;8.790;2023-03-14T04:26:25;0.43;;;0.43;;
68888;SDS011;55930;47.412;8.790;2023-03-14T04:34:03;0.40;;;0.40;;
68888;SDS011;55930;47.412;8.790;2023-03-14T04:37:25;0.32;;;0.32;;
68888;SDS011;55930;47.412;8.790;2023-03-14T04:40:46;0.40;;;0.40;;
68888;SDS011;55930;47.412;8.790;2023-03-14T04:47:27;0.67;;;0.40;;
68888;SDS011;55930;47.412;8.790;2023-03-14T04:50:49;0.40;;;0.40;;
68888;SDS011;55930;47.412;8.790;2023-03-14T04:54:09;0.75;;;0.35;;
68888;SDS011;55930;47.412;8.790;2023-03-14T04:57:30;0.50;;;0.50;;
68888;SDS011;55930;47.412;8.790;2023-03-14T05:00:50;0.50;;;0.50;;
68888;SDS011;55930;47.412;8.790;2023-03-14T05:04:10;0.40;;;0.40;;
68888;SDS011;55930;47.412;8.790;2023-03-14T05:07:31;0.60;;;0.60;;
68888;SDS011;55930;47.412;8.790;2023-03-14T05:10:55;0.70;;;0.53;;
68888;SDS011;55930;47.412;8.790;2023-03-14T05:14:16;2.13;;;0.77;;
68888;SDS011;55930;47.412;8.790;2023-03-14T05:17:37;1.13;;;0.60;;
68888;SDS011;55930;47.412;8.790;2023-03-14T05:21:00;0.93;;;0.70;;
68888;SDS011;55930;47.412;8.790;2023-03-14T05:27:41;0.68;;;0.50;;
68888;SDS011;55930;47.412;8.790;2023-03-14T05:31:05;2.80;;;0.60;;
68888;SDS011;55930;47.412;8.790;2023-03-14T05:34:26;0.50;;;0.50;;
68888;SDS011;55930;47.412;8.790;2023-03-14T05:37:47;0.50;;;0.50;;
68888;SDS011;55930;47.412;8.790;2023-03-14T05:41:07;0.47;;;0.47;;
68888;SDS011;55930;47.412;8.790;2023-03-14T05:44:28;0.50;;;0.50;;
68888;SDS011;55930;47.412;8.790;2023-03-14T05:47:48;0.40;;;0.40;;
68888;SDS011;55930;47.412;8.790;2023-03-14T05:51:09;0.40;;;0.40;;
68888;SDS011;55930;47.412;8.790;2023-03-14T05:54:29;0.73;;;0.73;;
68888;SDS011;55930;47.412;8.790;2023-03-14T05:57:52;0.63;;;0.50;;
68888;SDS011;55930;47.412;8.790;2023-03-14T06:04:34;1.90;;;0.50;;
68888;SDS011;55930;47.412;8.790;2023-03-14T06:07:56;0.30;;;0.30;;
68888;SDS011;55930;47.412;8.790;2023-03-14T06:11:34;0.30;;;0.30;;
68888;SDS011;55930;47.412;8.790;2023-03-14T06:14:54;0.53;;;0.47;;
68888;SDS011;55930;47.412;8.790;2023-03-14T06:18:18;0.73;;;0.43;;
68888;SDS011;55930;47.412;8.790;2023-03-14T06:25:01;0.70;;;0.70;;
68888;SDS011;55930;47.412;8.790;2023-03-14T06:28:25;0.40;;;0.40;;
68888;SDS011;55930;47.412;8.790;2023-03-14T06:31:47;1.70;;;0.40;;
68888;SDS011;55930;47.412;8.790;2023-03-14T06:35:08;0.47;;;0.47;;
68888;SDS011;55930;47.412;8.790;2023-03-14T06:42:01;0.63;;;0.40;;
68888;SDS011;55930;47.412;8.790;2023-03-14T06:45:23;0.65;;;0.43;;
68888;SDS011;55930;47.412;8.790;2023-03-14T06:48:44;0.43;;;0.40;;
68888;SDS011;55930;47.412;8.790;2023-03-14T06:52:05;0.97;;;0.50;;
68888;SDS011;55930;47.412;8.790;2023-03-14T06:55:25;0.98;;;0.50;;
68888;SDS011;55930;47.412;8.790;2023-03-14T06:58:46;2.57;;;0.57;;
68888;SDS011;55930;47.412;8.790;2023-03-14T07:02:10;2.95;;;0.50;;
68888;SDS011;55930;47.412;8.790;2023-03-14T07:05:32;1.50;;;0.70;;
68888;SDS011;55930;47.412;8.790;2023-03-14T07:08:53;1.35;;;0.70;;
68888;SDS011;55930;47.412;8.790;2023-03-14T07:12:13;1.37;;;1.00;;
68888;SDS011;55930;47.412;8.790;2023-03-14T07:15:34;1.20;;;0.63;;
68888;SDS011;55930;47.412;8.790;2023-03-14T07:18:54;0.73;;;0.60;;
68888;SDS011;55930;47.412;8.790;2023-03-14T07:22:15;2.17;;;0.83;;
68888;SDS011;55930;47.412;8.790;2023-03-14T07:25:35;1.20;;;0.60;;
68888;SDS011;55930;47.412;8.790;2023-03-14T07:28:56;0.60;;;0.60;;
68888;SDS011;55930;47.412;8.790;2023-03-14T07:32:16;1.37;;;0.90;;
68888;SDS011;55930;47.412;8.790;2023-03-14T07:35:37;2.35;;;0.88;;
68888;SDS011;55930;47.412;8.790;2023-03-14T07:38:58;1.10;;;1.00;;
68888;SDS011;55930;47.412;8.790;2023-03-14T07:42:18;1.30;;;0.93;;
68888;SDS011;55930;47.412;8.790;2023-03-14T07:45:46;1.30;;;1.20;;
68888;SDS011;55930;47.412;8.790;2023-03-14T07:49:31;1.17;;;0.98;;
68888;SDS011;55930;47.412;8.790;2023-03-14T07:52:57;0.47;;;0.47;;
68888;SDS011;55930;47.412;8.790;2023-03-14T07:56:19;0.73;;;0.60;;
68888;SDS011;55930;47.412;8.790;2023-03-14T07:59:40;0.60;;;0.30;;
68888;SDS011;55930;47.412;8.790;2023-03-14T08:03:04;0.63;;;0.47;;
68888;SDS011;55930;47.412;8.790;2023-03-14T08:06:26;1.92;;;0.77;;
68888;SDS011;55930;47.412;8.790;2023-03-14T08:13:09;0.53;;;0.30;;
68888;SDS011;55930;47.412;8.790;2023-03-14T08:16:30;0.82;;;0.50;;
68888;SDS011;55930;47.412;8.790;2023-03-14T08:19:52;0.50;;;0.50;;
68888;SDS011;55930;47.412;8.790;2023-03-14T08:23:12;1.13;;;0.40;;
68888;SDS011;55930;47.412;8.790;2023-03-14T08:26:35;0.75;;;0.68;;
68888;SDS011;55930;47.412;8.790;2023-03-14T08:33:16;1.07;;;0.70;;
68888;SDS011;55930;47.412;8.790;2023-03-14T08:36:36;3.93;;;0.60;;
68888;SDS011;55930;47.412;8.790;2023-03-14T08:40:00;0.73;;;0.60;;
68888;SDS011;55930;47.412;8.790;2023-03-14T08:43:29;0.57;;;0.50;;
68888;SDS011;55930;47.412;8.790;2023-03-14T08:46:53;1.85;;;0.60;;
68888;SDS011;55930;47.412;8.790;2023-03-14T08:50:13;1.07;;;0.73;;
68888;SDS011;55930;47.412;8.790;2023-03-14T08:53:34;1.53;;;0.60;;
68888;SDS011;55930;47.412;8.790;2023-03-14T08:56:54;0.70;;;0.50;;
68888;SDS011;55930;47.412;8.790;2023-03-14T09:00:16;3.13;;;0.50;;
68888;SDS011;55930;47.412;8.790;2023-03-14T09:03:38;1.00;;;0.50;;
68888;SDS011;55930;47.412;8.790;2023-03-14T09:06:59;1.80;;;0.67;;
68888;SDS011;55930;47.412;8.790;2023-03-14T09:13:41;0.80;;;0.70;;
68888;SDS011;55930;47.412;8.790;2023-03-14T09:17:05;0.85;;;0.70;;
68888;SDS011;55930;47.412;8.790;2023-03-14T09:20:26;0.97;;;0.70;;
68888;SDS011;55930;47.412;8.790;2023-03-14T09:23:46;1.07;;;0.70;;
68888;SDS011;55930;47.412;8.790;2023-03-14T09:27:09;1.35;;;0.65;;
68888;SDS011;55930;47.412;8.790;2023-03-14T09:30:31;3.10;;;0.63;;
68888;SDS011;55930;47.412;8.790;2023-03-14T09:33:53;1.00;;;0.68;;
68888;SDS011;55930;47.412;8.790;2023-03-14T09:37:13;1.87;;;0.60;;
68888;SDS011;55930;47.412;8.790;2023-03-14T09:40:36;0.63;;;0.60;;
68888;SDS011;55930;47.412;8.790;2023-03-14T09:47:40;2.13;;;1.08;;
68888;SDS011;55930;47.412;8.790;2023-03-14T09:51:03;1.55;;;0.63;;
68888;SDS011;55930;47.412;8.790;2023-03-14T09:54:42;1.88;;;0.70;;
68888;SDS011;55930;47.412;8.790;2023-03-14T09:58:15;1.02;;;0.52;;
68888;SDS011;55930;47.412;8.790;2023-03-14T10:01:39;1.88;;;0.63;;
68888;SDS011;55930;47.412;8.790;2023-03-14T10:05:36;1.45;;;0.73;;
68888;SDS011;55930;47.412;8.790;2023-03-14T10:08:49;1.75;;;0.60;;
68888;SDS011;55930;47.412;8.790;2023-03-14T10:12:13;0.90;;;0.60;;
68888;SDS011;55930;47.412;8.790;2023-03-14T10:15:37;1.33;;;0.50;;
68888;SDS011;55930;47.412;8.790;2023-03-14T10:19:03;0.77;;;0.50;;
68888;SDS011;55930;47.412;8.790;2023-03-14T10:22:26;0.50;;;0.50;;
68888;SDS011;55930;47.412;8.790;2023-03-14T10:26:03;1.05;;;0.75;;
68888;SDS011;55930;47.412;8.790;2023-03-14T10:29:24;1.25;;;0.40;;
68888;SDS011;55930;47.412;8.790;2023-03-14T10:32:45;0.63;;;0.50;;
68888;SDS011;55930;47.412;8.790;2023-03-14T10:36:14;1.63;;;0.63;;
68888;SDS011;55930;47.412;8.790;2023-03-14T10:39:46;0.82;;;0.40;;
68888;SDS011;55930;47.412;8.790;2023-03-14T10:43:13;1.00;;;0.47;;
68888;SDS011;55930;47.412;8.790;2023-03-14T10:46:38;2.10;;;0.55;;
68888;SDS011;55930;47.412;8.790;2023-03-14T10:53:47;1.35;;;0.50;;
68888;SDS011;55930;47.412;8.790;2023-03-14T10:57:18;1.75;;;0.60;;
68888;SDS011;55930;47.412;8.790;2023-03-14T11:00:42;1.92;;;1.38;;
68888;SDS011;55930;47.412;8.790;2023-03-14T11:08:11;1.40;;;0.60;;
68888;SDS011;55930;47.412;8.790;2023-03-14T11:11:46;1.80;;;0.45;;
68888;SDS011;55930;47.412;8.790;2023-03-14T11:18:48;0.70;;;0.40;;
68888;SDS011;55930;47.412;8.790;2023-03-14T11:22:38;0.30;;;0.30;;
68888;SDS011;55930;47.412;8.790;2023-03-14T11:30:18;0.35;;;0.30;;
68888;SDS011;55930;47.412;8.790;2023-03-14T11:37:26;0.30;;;0.30;;
68888;SDS011;55930;47.412;8.790;2023-03-14T11:44:20;0.38;;;0.30;;
68888;SDS011;55930;47.412;8.790;2023-03-14T11:52:03;0.20;;;0.20;;
68888;SDS011;55930;47.412;8.790;2023-03-14T11:55:34;0.53;;;0.20;;
68888;SDS011;55930;47.412;8.790;2023-03-14T12:02:56;1.60;;;0.17;;
68888;SDS011;55930;47.412;8.790;2023-03-14T12:09:54;0.28;;;0.28;;
68888;SDS011;55930;47.412;8.790;2023-03-14T12:13:16;0.43;;;0.30;;
68888;SDS011;55930;47.412;8.790;2023-03-14T12:16:38;0.45;;;0.30;;
68888;SDS011;55930;47.412;8.790;2023-03-14T12:23:45;1.08;;;0.40;;
68888;SDS011;55930;47.412;8.790;2023-03-14T12:27:37;0.55;;;0.30;;
68888;SDS011;55930;47.412;8.790;2023-03-14T12:34:53;0.25;;;0.20;;
68888;SDS011;55930;47.412;8.790;2023-03-14T12:42:04;0.35;;;0.30;;
68888;SDS011;55930;47.412;8.790;2023-03-14T12:46:06;0.30;;;0.30;;
68888;SDS011;55930;47.412;8.790;2023-03-14T12:49:30;0.45;;;0.30;;
68888;SDS011;55930;47.412;8.790;2023-03-14T12:56:21;0.35;;;0.30;;
68888;SDS011;55930;47.412;8.790;2023-03-14T12:59:58;0.70;;;0.40;;
68888;SDS011;55930;47.412;8.790;2023-03-14T13:03:47;0.30;;;0.30;;
68888;SDS011;55930;47.412;8.790;2023-03-14T13:07:31;0.95;;;0.40;;
68888;SDS011;55930;47.412;8.790;2023-03-14T13:10:58;0.65;;;0.50;;
68888;SDS011;55930;47.412;8.790;2023-03-14T13:14:22;0.30;;;0.30;;
68888;SDS011;55930;47.412;8.790;2023-03-14T13:17:43;0.40;;;0.40;;
68888;SDS011;55930;47.412;8.790;2023-03-14T13:21:15;0.68;;;0.40;;
68888;SDS011;55930;47.412;8.790;2023-03-14T13:24:39;1.40;;;0.63;;
68888;SDS011;55930;47.412;8.790;2023-03-14T13:28:03;1.17;;;0.60;;
68888;SDS011;55930;47.412;8.790;2023-03-14T13:34:45;0.70;;;0.50;;
68888;SDS011;55930;47.412;8.790;2023-03-14T13:38:18;1.08;;;0.68;;
68888;SDS011;55930;47.412;8.790;2023-03-14T13:41:45;2.47;;;0.70;;
68888;SDS011;55930;47.412;8.790;2023-03-14T13:45:09;3.30;;;0.90;;
68888;SDS011;55930;47.412;8.790;2023-03-14T13:48:35;2.20;;;0.88;;
68888;SDS011;55930;47.412;8.790;2023-03-14T13:52:03;2.22;;;1.10;;
68888;SDS011;55930;47.412;8.790;2023-03-14T13:55:41;2.65;;;1.23;;
68888;SDS011;55930;47.412;8.790;2023-03-14T13:59:01;2.80;;;1.03;;
68888;SDS011;55930;47.412;8.790;2023-03-14T14:02:22;2.63;;;0.90;;
68888;SDS011;55930;47.412;8.790;2023-03-14T14:05:45;3.22;;;0.90;;
68888;SDS011;55930;47.412;8.790;2023-03-14T14:09:18;3.57;;;1.17;;
68888;SDS011;55930;47.412;8.790;2023-03-14T14:12:53;2.17;;;0.80;;
68888;SDS011;55930;47.412;8.790;2023-03-14T14:16:20;3.58;;;0.90;;
68888;SDS011;55930;47.412;8.790;2023-03-14T14:19:45;3.30;;;0.73;;
68888;SDS011;55930;47.412;8.790;2023-03-14T14:23:21;7.55;;;1.20;;
68888;SDS011;55930;47.412;8.790;2023-03-14T14:27:00;3.67;;;0.97;;
68888;SDS011;55930;47.412;8.790;2023-03-14T14:31:18;5.43;;;1.60;;
68888;SDS011;55930;47.412;8.790;2023-03-14T14:38:16;3.50;;;0.80;;
68888;SDS011;55930;47.412;8.790;2023-03-14T14:41:41;2.78;;;0.80;;
68888;SDS011;55930;47.412;8.790;2023-03-14T14:45:05;2.78;;;0.88;;
68888;SDS011;55930;47.412;8.790;2023-03-14T14:48:41;2.88;;;0.77;;
68888;SDS011;55930;47.412;8.790;2023-03-14T14:52:09;2.08;;;0.82;;
68888;SDS011;55930;47.412;8.790;2023-03-14T14:55:43;2.50;;;1.05;;
68888;SDS011;55930;47.412;8.790;2023-03-14T14:59:05;2.08;;;0.82;;
68888;SDS011;55930;47.412;8.790;2023-03-14T15:02:39;1.65;;;0.70;;
68888;SDS011;55930;47.412;8.790;2023-03-14T15:06:21;1.73;;;0.80;;
68888;SDS011;55930;47.412;8.790;2023-03-14T15:09:44;1.75;;;0.68;;
68888;SDS011;55930;47.412;8.790;2023-03-14T15:13:04;1.50;;;0.60;;
68888;SDS011;55930;47.412;8.790;2023-03-14T15:16:28;1.00;;;0.70;;
68888;SDS011;55930;47.412;8.790;2023-03-14T15:19:51;1.80;;;0.65;;
68888;SDS011;55930;47.412;8.790;2023-03-14T15:23:12;2.07;;;0.80;;
68888;SDS011;55930;47.412;8.790;2023-03-14T15:26:37;1.90;;;0.63;;
68888;SDS011;55930;47.412;8.790;2023-03-14T15:29:58;2.47;;;0.65;;
68888;SDS011;55930;47.412;8.790;2023-03-14T15:33:27;3.60;;;0.70;;
68888;SDS011;55930;47.412;8.790;2023-03-14T15:36:49;3.38;;;0.98;;
68888;SDS011;55930;47.412;8.790;2023-03-14T15:40:45;4.00;;;0.90;;
68888;SDS011;55930;47.412;8.790;2023-03-14T15:44:17;1.55;;;0.60;;
68888;SDS011;55930;47.412;8.790;2023-03-14T15:47:38;2.92;;;0.65;;
68888;SDS011;55930;47.412;8.790;2023-03-14T15:51:00;1.67;;;0.60;;
68888;SDS011;55930;47.412;8.790;2023-03-14T15:54:20;2.45;;;0.80;;
68888;SDS011;55930;47.412;8.790;2023-03-14T15:57:44;3.03;;;0.80;;
68888;SDS011;55930;47.412;8.790;2023-03-14T16:01:09;4.43;;;0.88;;
68888;SDS011;55930;47.412;8.790;2023-03-14T16:04:32;1.75;;;0.85;;
68888;SDS011;55930;47.412;8.790;2023-03-14T16:07:55;1.35;;;0.70;;
68888;SDS011;55930;47.412;8.790;2023-03-14T16:11:18;1.55;;;0.57;;
68888;SDS011;55930;47.412;8.790;2023-03-14T16:14:42;1.70;;;0.65;;
68888;SDS011;55930;47.412;8.790;2023-03-14T16:18:09;2.63;;;0.80;;
68888;SDS011;55930;47.412;8.790;2023-03-14T16:22:21;2.53;;;0.60;;
68888;SDS011;55930;47.412;8.790;2023-03-14T16:25:43;0.70;;;0.50;;
68888;SDS011;55930;47.412;8.790;2023-03-14T16:32:52;2.67;;;0.60;;
68888;SDS011;55930;47.412;8.790;2023-03-14T16:36:13;2.73;;;0.60;;
68888;SDS011;55930;47.412;8.790;2023-03-14T16:39:33;1.77;;;0.80;;
68888;SDS011;55930;47.412;8.790;2023-03-14T16:42:54;4.37;;;0.93;;
68888;SDS011;55930;47.412;8.790;2023-03-14T16:46:15;2.13;;;0.67;;
68888;SDS011;55930;47.412;8.790;2023-03-14T16:49:38;1.45;;;0.50;;
68888;SDS011;55930;47.412;8.790;2023-03-14T16:52:59;1.53;;;0.77;;
68888;SDS011;55930;47.412;8.790;2023-03-14T16:56:21;2.38;;;0.63;;
68888;SDS011;55930;47.412;8.790;2023-03-14T16:59:41;0.93;;;0.60;;
68888;SDS011;55930;47.412;8.790;2023-03-14T17:03:04;2.05;;;0.80;;
68888;SDS011;55930;47.412;8.790;2023-03-14T17:06:25;2.60;;;0.60;;
68888;SDS011;55930;47.412;8.790;2023-03-14T17:09:47;0.70;;;0.60;;
68888;SDS011;55930;47.412;8.790;2023-03-14T17:13:10;1.42;;;0.63;;
68888;SDS011;55930;47.412;8.790;2023-03-14T17:16:31;2.47;;;0.80;;
68888;SDS011;55930;47.412;8.790;2023-03-14T17:19:52;0.30;;;0.30;;
68888;SDS011;55930;47.412;8.790;2023-03-14T17:23:12;0.60;;;0.50;;
68888;SDS011;55930;47.412;8.790;2023-03-14T17:26:33;1.30;;;0.60;;
68888;SDS011;55930;47.412;8.790;2023-03-14T17:29:53;0.80;;;0.50;;
68888;SDS011;55930;47.412;8.790;2023-03-14T17:33:14;1.53;;;0.63;;
68888;SDS011;55930;47.412;8.790;2023-03-14T17:36:34;1.10;;;0.60;;
68888;SDS011;55930;47.412;8.790;2023-03-14T17:39:55;1.50;;;0.50;;
68888;SDS011;55930;47.412;8.790;2023-03-14T17:43:15;1.97;;;0.70;;
68888;SDS011;55930;47.412;8.790;2023-03-14T17:46:39;1.23;;;0.55;;
68888;SDS011;55930;47.412;8.790;2023-03-14T17:50:04;0.98;;;0.50;;
68888;SDS011;55930;47.412;8.790;2023-03-14T17:53:28;0.45;;;0.40;;
68888;SDS011;55930;47.412;8.790;2023-03-14T17:56:48;0.63;;;0.52;;
68888;SDS011;55930;47.412;8.790;2023-03-14T18:00:09;2.07;;;0.70;;
68888;SDS011;55930;47.412;8.790;2023-03-14T18:06:50;1.20;;;0.60;;
68888;SDS011;55930;47.412;8.790;2023-03-14T18:10:11;1.07;;;0.70;;
68888;SDS011;55930;47.412;8.790;2023-03-14T18:13:34;1.13;;;0.90;;
68888;SDS011;55930;47.412;8.790;2023-03-14T18:16:56;1.33;;;0.80;;
68888;SDS011;55930;47.412;8.790;2023-03-14T18:20:16;0.93;;;0.87;;
68888;SDS011;55930;47.412;8.790;2023-03-14T18:23:37;0.83;;;0.77;;
68888;SDS011;55930;47.412;8.790;2023-03-14T18:26:58;1.42;;;0.88;;
68888;SDS011;55930;47.412;8.790;2023-03-14T18:30:18;1.73;;;1.17;;
68888;SDS011;55930;47.412;8.790;2023-03-14T18:33:39;3.20;;;1.23;;
68888;SDS011;55930;47.412;8.790;2023-03-14T18:37:01;2.10;;;1.00;;
68888;SDS011;55930;47.412;8.790;2023-03-14T18:40:24;3.67;;;1.50;;
68888;SDS011;55930;47.412;8.790;2023-03-14T18:43:46;1.33;;;0.90;;
68888;SDS011;55930;47.412;8.790;2023-03-14T18:47:07;1.25;;;1.00;;
68888;SDS011;55930;47.412;8.790;2023-03-14T18:50:28;1.70;;;1.10;;
68888;SDS011;55930;47.412;8.790;2023-03-14T18:53:48;1.60;;;1.10;;
68888;SDS011;55930;47.412;8.790;2023-03-14T18:57:09;1.30;;;1.20;;
68888;SDS011;55930;47.412;8.790;2023-03-14T19:00:30;1.33;;;1.23;;
68888;SDS011;55930;47.412;8.790;2023-03-14T19:03:50;1.17;;;1.07;;
68888;SDS011;55930;47.412;8.790;2023-03-14T19:07:11;3.50;;;1.23;;
68888;SDS011;55930;47.412;8.790;2023-03-14T19:10:33;3.58;;;1.42;;
68888;SDS011;55930;47.412;8.790;2023-03-14T19:13:53;1.40;;;1.30;;
68888;SDS011;55930;47.412;8.790;2023-03-14T19:17:14;2.73;;;1.30;;
68888;SDS011;55930;47.412;8.790;2023-03-14T19:20:34;1.60;;;1.20;;
68888;SDS011;55930;47.412;8.790;2023-03-14T19:23:55;1.97;;;1.70;;
68888;SDS011;55930;47.412;8.790;2023-03-14T19:27:15;1.27;;;1.07;;
68888;SDS011;55930;47.412;8.790;2023-03-14T19:30:36;2.27;;;1.30;;
68888;SDS011;55930;47.412;8.790;2023-03-14T19:33:56;1.30;;;1.20;;
68888;SDS011;55930;47.412;8.790;2023-03-14T19:37:17;1.63;;;1.00;;
68888;SDS011;55930;47.412;8.790;2023-03-14T19:40:38;1.50;;;1.07;;
68888;SDS011;55930;47.412;8.790;2023-03-14T19:44:00;1.10;;;1.00;;
68888;SDS011;55930;47.412;8.790;2023-03-14T19:47:21;2.60;;;1.07;;
68888;SDS011;55930;47.412;8.790;2023-03-14T19:50:41;2.07;;;0.90;;
68888;SDS011;55930;47.412;8.790;2023-03-14T19:54:02;3.23;;;1.20;;
68888;SDS011;55930;47.412;8.790;2023-03-14T19:57:23;1.45;;;1.20;;
68888;SDS011;55930;47.412;8.790;2023-03-14T20:00:46;1.70;;;1.00;;
68888;SDS011;55930;47.412;8.790;2023-03-14T20:04:07;3.00;;;0.90;;
68888;SDS011;55930;47.412;8.790;2023-03-14T20:10:51;2.63;;;1.10;;
68888;SDS011;55930;47.412;8.790;2023-03-14T20:14:12;2.77;;;1.20;;
68888;SDS011;55930;47.412;8.790;2023-03-14T20:17:41;2.97;;;1.13;;
68888;SDS011;55930;47.412;8.790;2023-03-14T20:21:08;4.43;;;1.05;;
68888;SDS011;55930;47.412;8.790;2023-03-14T20:24:31;2.35;;;1.20;;
68888;SDS011;55930;47.412;8.790;2023-03-14T20:27:52;4.63;;;1.80;;
68888;SDS011;55930;47.412;8.790;2023-03-14T20:31:12;2.40;;;1.20;;
68888;SDS011;55930;47.412;8.790;2023-03-14T20:34:36;1.85;;;1.33;;
68888;SDS011;55930;47.412;8.790;2023-03-14T20:37:58;2.10;;;1.02;;
68888;SDS011;55930;47.412;8.790;2023-03-14T20:41:18;2.40;;;0.90;;
68888;SDS011;55930;47.412;8.790;2023-03-14T20:44:38;2.30;;;1.10;;
68888;SDS011;55930;47.412;8.790;2023-03-14T20:48:00;2.70;;;1.13;;
68888;SDS011;55930;47.412;8.790;2023-03-14T20:51:21;3.30;;;1.10;;
68888;SDS011;55930;47.412;8.790;2023-03-14T20:54:44;2.53;;;0.93;;
68888;SDS011;55930;47.412;8.790;2023-03-14T20:58:07;2.60;;;1.10;;
68888;SDS011;55930;47.412;8.790;2023-03-14T21:01:29;3.08;;;1.10;;
68888;SDS011;55930;47.412;8.790;2023-03-14T21:04:52;7.75;;;5.35;;
68888;SDS011;55930;47.412;8.790;2023-03-14T21:08:17;4.70;;;3.00;;
68888;SDS011;55930;47.412;8.790;2023-03-14T21:11:40;3.17;;;1.10;;
68888;SDS011;55930;47.412;8.790;2023-03-14T21:15:06;3.67;;;1.77;;
68888;SDS011;55930;47.412;8.790;2023-03-14T21:21:51;7.50;;;1.38;;
68888;SDS011;55930;47.412;8.790;2023-03-14T21:25:11;2.27;;;1.50;;
68888;SDS011;55930;47.412;8.790;2023-03-14T21:28:32;2.50;;;1.10;;
68888;SDS011;55930;47.412;8.790;2023-03-14T21:31:52;1.33;;;0.90;;
68888;SDS011;55930;47.412;8.790;2023-03-14T21:35:13;2.60;;;1.10;;
68888;SDS011;55930;47.412;8.790;2023-03-14T21:38:33;6.03;;;1.70;;
68888;SDS011;55930;47.412;8.790;2023-03-14T21:41:57;1.42;;;1.00;;
68888;SDS011;55930;47.412;8.790;2023-03-14T21:45:17;3.57;;;1.37;;
68888;SDS011;55930;47.412;8.790;2023-03-14T21:48:37;3.87;;;1.30;;
68888;SDS011;55930;47.412;8.790;2023-03-14T21:51:58;2.07;;;1.00;;
68888;SDS011;55930;47.412;8.790;2023-03-14T21:55:18;2.97;;;1.17;;
68888;SDS011;55930;47.412;8.790;2023-03-14T21:58:53;2.15;;;1.17;;
68888;SDS011;55930;47.412;8.790;2023-03-14T22:02:18;3.58;;;1.20;;
68888;SDS011;55930;47.412;8.790;2023-03-14T22:05:52;4.57;;;1.98;;
68888;SDS011;55930;47.412;8.790;2023-03-14T22:09:12;3.80;;;1.10;;
68888;SDS011;55930;47.412;8.790;2023-03-14T22:12:32;4.40;;;1.60;;
68888;SDS011;55930;47.412;8.790;2023-03-14T22:15:53;2.70;;;1.10;;
68888;SDS011;55930;47.412;8.790;2023-03-14T22:19:13;2.53;;;0.83;;
68888;SDS011;55930;47.412;8.790;2023-03-14T22:22:34;2.30;;;0.80;;
68888;SDS011;55930;47.412;8.790;2023-03-14T22:25:54;1.57;;;1.00;;
68888;SDS011;55930;47.412;8.790;2023-03-14T22:29:15;3.87;;;1.20;;
68888;SDS011;55930;47.412;8.790;2023-03-14T22:32:36;2.30;;;1.00;;
68888;SDS011;55930;47.412;8.790;2023-03-14T22:35:56;3.43;;;0.93;;